UAE726 HTDA-OMDB
Flight info
| Callsign | UAE726 |
|---|---|
| Flight time | 4h 38m |
| Altitude | 37000 |
| Route | ELAVA UL437 VEDET B400 DAXAM DEDSO R401 PEDOG KIPOK IMPED |
| Aircraft | B77W/H-SDE1E2E3FGHIJ2J3J4J5M1RWXYZ/LB1D1 |
Departure
| Time | 2026-04-16 11:07 |
|---|---|
| Airport | Julius Nyerere International Airport (HTDA) |
Arrival
| Time | 2026-04-16 15:45 |
|---|---|
| Airport | Dubai International Airport (OMDB) |
| Time | Latitude | Longitude | Altitude | Speed | Heading |
|---|---|---|---|---|---|
| 2026-04-16 10:14 | -6.86430 | 39.21194 | 198 ft | 0 kts | 315° |
| 2026-04-16 10:59 | -6.86437 | 39.21201 | 205 ft | 3 kts | 315° |
| 2026-04-16 10:59 | -6.86451 | 39.21215 | 203 ft | 3 kts | 315° |
| 2026-04-16 10:59 | -6.86462 | 39.21226 | 198 ft | 3 kts | 321° |
| 2026-04-16 10:59 | -6.86476 | 39.21236 | 203 ft | 3 kts | 344° |
| 2026-04-16 11:00 | -6.86490 | 39.21238 | 202 ft | 3 kts | 15° |
| 2026-04-16 11:00 | -6.86503 | 39.21232 | 203 ft | 3 kts | 43° |
| 2026-04-16 11:00 | -6.86517 | 39.21218 | 203 ft | 3 kts | 48° |
| 2026-04-16 11:00 | -6.86527 | 39.21206 | 203 ft | 1 kts | 45° |
| 2026-04-16 11:01 | -6.86530 | 39.21204 | 204 ft | 1 kts | 45° |
| 2026-04-16 11:03 | -6.86493 | 39.21240 | 203 ft | 18 kts | 45° |
| 2026-04-16 11:04 | -6.86431 | 39.21303 | 202 ft | 8 kts | 50° |
| 2026-04-16 11:04 | -6.86427 | 39.21359 | 192 ft | 8 kts | 95° |
| 2026-04-16 11:04 | -6.86412 | 39.21414 | 197 ft | 8 kts | 62° |
| 2026-04-16 11:04 | -6.86376 | 39.21459 | 200 ft | 8 kts | 45° |
| 2026-04-16 11:05 | -6.86337 | 39.21501 | 198 ft | 8 kts | 53° |
| 2026-04-16 11:05 | -6.86319 | 39.21560 | 182 ft | 9 kts | 80° |
| 2026-04-16 11:05 | -6.86327 | 39.21625 | 180 ft | 10 kts | 116° |
| 2026-04-16 11:05 | -6.86380 | 39.21659 | 180 ft | 10 kts | 178° |
| 2026-04-16 11:06 | -6.86433 | 39.21633 | 181 ft | 5 kts | 222° |
| 2026-04-16 11:06 | -6.86434 | 39.21632 | 181 ft | 0 kts | 222° |
| 2026-04-16 11:06 | -6.86465 | 39.21603 | 182 ft | 18 kts | 224° |
| 2026-04-16 11:06 | -6.86654 | 39.21417 | 197 ft | 72 kts | 224° |
| 2026-04-16 11:07 | -6.87203 | 39.20876 | 182 ft | 147 kts | 223° |
| 2026-04-16 11:07 | -6.88080 | 39.19996 | 204 ft | 202 kts | 226° |
| 2026-04-16 11:07 | -6.89046 | 39.18981 | 820 ft | 197 kts | 226° |
| 2026-04-16 11:07 | -6.89923 | 39.17958 | 1706 ft | 190 kts | 240° |
| 2026-04-16 11:08 | -6.90233 | 39.16672 | 2517 ft | 195 kts | 274° |
| 2026-04-16 11:08 | -6.89829 | 39.15354 | 3189 ft | 203 kts | 302° |
| 2026-04-16 11:08 | -6.88852 | 39.14301 | 3758 ft | 211 kts | 328° |
| 2026-04-16 11:08 | -6.87459 | 39.13833 | 4210 ft | 214 kts | 4° |
| 2026-04-16 11:09 | -6.86085 | 39.14283 | 4744 ft | 210 kts | 44° |
| 2026-04-16 11:09 | -6.85352 | 39.15503 | 5191 ft | 206 kts | 82° |
| 2026-04-16 11:09 | -6.85128 | 39.16921 | 5725 ft | 207 kts | 84° |
| 2026-04-16 11:09 | -6.85158 | 39.18368 | 5902 ft | 215 kts | 104° |
| 2026-04-16 11:10 | -6.85487 | 39.19910 | 5951 ft | 236 kts | 101° |
| 2026-04-16 11:10 | -6.85795 | 39.21616 | 5931 ft | 257 kts | 100° |
| 2026-04-16 11:10 | -6.86106 | 39.23370 | 5883 ft | 257 kts | 100° |
| 2026-04-16 11:10 | -6.86419 | 39.25149 | 5929 ft | 262 kts | 100° |
| 2026-04-16 11:11 | -6.86740 | 39.26976 | 6387 ft | 271 kts | 100° |
| 2026-04-16 11:11 | -6.86997 | 39.28927 | 6487 ft | 292 kts | 88° |
| 2026-04-16 11:11 | -6.86506 | 39.30959 | 6719 ft | 310 kts | 62° |
| 2026-04-16 11:11 | -6.85128 | 39.32653 | 7301 ft | 318 kts | 39° |
| 2026-04-16 11:12 | -6.83152 | 39.33690 | 7876 ft | 325 kts | 19° |
| 2026-04-16 11:12 | -6.80941 | 39.34226 | 8449 ft | 331 kts | 6° |
| 2026-04-16 11:12 | -6.78624 | 39.34242 | 9017 ft | 337 kts | 358° |
| 2026-04-16 11:12 | -6.76272 | 39.34076 | 9659 ft | 340 kts | 358° |
| 2026-04-16 11:13 | -6.73924 | 39.33963 | 10259 ft | 343 kts | 359° |
| 2026-04-16 11:13 | -6.71530 | 39.33872 | 10875 ft | 346 kts | 359° |
| 2026-04-16 11:13 | -6.69114 | 39.33785 | 11500 ft | 349 kts | 359° |
| 2026-04-16 11:13 | -6.66687 | 39.33951 | 11819 ft | 356 kts | 18° |
| 2026-04-16 11:14 | -6.64399 | 39.35021 | 11990 ft | 371 kts | 33° |
| 2026-04-16 11:14 | -6.62245 | 39.36520 | 12416 ft | 380 kts | 37° |
| 2026-04-16 11:14 | -6.60120 | 39.38141 | 12990 ft | 386 kts | 38° |
| 2026-04-16 11:14 | -6.57965 | 39.39780 | 13548 ft | 393 kts | 37° |
| 2026-04-16 11:15 | -6.55750 | 39.41418 | 14120 ft | 397 kts | 37° |
| 2026-04-16 11:15 | -6.53492 | 39.43035 | 14701 ft | 399 kts | 36° |
| 2026-04-16 11:15 | -6.51211 | 39.44629 | 15257 ft | 402 kts | 35° |
| 2026-04-16 11:15 | -6.48917 | 39.46206 | 15778 ft | 406 kts | 35° |
| 2026-04-16 11:16 | -6.46544 | 39.47820 | 16317 ft | 409 kts | 35° |
| 2026-04-16 11:16 | -6.44202 | 39.49405 | 16840 ft | 413 kts | 35° |
| 2026-04-16 11:16 | -6.41803 | 39.51024 | 17361 ft | 416 kts | 34° |
| 2026-04-16 11:16 | -6.39384 | 39.52654 | 17860 ft | 420 kts | 34° |
| 2026-04-16 11:17 | -6.36947 | 39.54296 | 18338 ft | 423 kts | 34° |
| 2026-04-16 11:17 | -6.34489 | 39.55953 | 18780 ft | 426 kts | 34° |
| 2026-04-16 11:17 | -6.32015 | 39.57621 | 19177 ft | 430 kts | 35° |
| 2026-04-16 11:17 | -6.29514 | 39.59308 | 19574 ft | 434 kts | 34° |
| 2026-04-16 11:18 | -6.26995 | 39.61006 | 19980 ft | 438 kts | 34° |
| 2026-04-16 11:18 | -6.24455 | 39.62719 | 20368 ft | 442 kts | 34° |
| 2026-04-16 11:18 | -6.21889 | 39.64448 | 20747 ft | 446 kts | 34° |
| 2026-04-16 11:18 | -6.19302 | 39.66193 | 21140 ft | 449 kts | 34° |
| 2026-04-16 11:19 | -6.16727 | 39.67927 | 21506 ft | 453 kts | 34° |
| 2026-04-16 11:19 | -6.14105 | 39.69695 | 21891 ft | 456 kts | 34° |
| 2026-04-16 11:19 | -6.11456 | 39.71480 | 22239 ft | 460 kts | 34° |
| 2026-04-16 11:19 | -6.08792 | 39.73275 | 22604 ft | 463 kts | 34° |
| 2026-04-16 11:20 | -6.06102 | 39.75087 | 22967 ft | 466 kts | 34° |
| 2026-04-16 11:20 | -6.03390 | 39.76914 | 23318 ft | 470 kts | 34° |
| 2026-04-16 11:20 | -6.00665 | 39.78749 | 23645 ft | 472 kts | 34° |
| 2026-04-16 11:20 | -5.97922 | 39.80597 | 23965 ft | 474 kts | 34° |
| 2026-04-16 11:21 | -5.95176 | 39.82446 | 24261 ft | 477 kts | 34° |
| 2026-04-16 11:21 | -5.92449 | 39.84282 | 24561 ft | 479 kts | 34° |
| 2026-04-16 11:21 | -5.89670 | 39.86153 | 24860 ft | 481 kts | 34° |
| 2026-04-16 11:21 | -5.86884 | 39.88028 | 25163 ft | 483 kts | 34° |
| 2026-04-16 11:22 | -5.84077 | 39.89917 | 25440 ft | 486 kts | 34° |
| 2026-04-16 11:22 | -5.81266 | 39.91809 | 25704 ft | 488 kts | 34° |
| 2026-04-16 11:22 | -5.78431 | 39.93717 | 26003 ft | 490 kts | 34° |
| 2026-04-16 11:22 | -5.75593 | 39.95626 | 26288 ft | 492 kts | 34° |
| 2026-04-16 11:23 | -5.72739 | 39.97546 | 26555 ft | 494 kts | 34° |
| 2026-04-16 11:23 | -5.69875 | 39.99473 | 26813 ft | 497 kts | 34° |
| 2026-04-16 11:23 | -5.66996 | 40.01409 | 27068 ft | 499 kts | 34° |
| 2026-04-16 11:23 | -5.64101 | 40.03356 | 27327 ft | 501 kts | 34° |
| 2026-04-16 11:24 | -5.61199 | 40.05307 | 27569 ft | 503 kts | 34° |
| 2026-04-16 11:24 | -5.58279 | 40.07270 | 27815 ft | 505 kts | 34° |
| 2026-04-16 11:24 | -5.55352 | 40.09238 | 28051 ft | 507 kts | 34° |
| 2026-04-16 11:24 | -5.52413 | 40.11213 | 28274 ft | 509 kts | 34° |
| 2026-04-16 11:25 | -5.49458 | 40.13199 | 28480 ft | 511 kts | 34° |
| 2026-04-16 11:25 | -5.46505 | 40.15184 | 28708 ft | 513 kts | 34° |
| 2026-04-16 11:25 | -5.43527 | 40.17185 | 28901 ft | 515 kts | 34° |
| 2026-04-16 11:25 | -5.40579 | 40.19166 | 29106 ft | 517 kts | 34° |
| 2026-04-16 11:26 | -5.37587 | 40.21176 | 29375 ft | 517 kts | 34° |
| 2026-04-16 11:26 | -5.34602 | 40.23180 | 29674 ft | 516 kts | 34° |
| 2026-04-16 11:26 | -5.31615 | 40.25186 | 29977 ft | 515 kts | 34° |
| 2026-04-16 11:26 | -5.28637 | 40.27186 | 30226 ft | 515 kts | 34° |
| 2026-04-16 11:27 | -5.25660 | 40.29185 | 30477 ft | 515 kts | 34° |
| 2026-04-16 11:27 | -5.22678 | 40.31187 | 30723 ft | 514 kts | 34° |
| 2026-04-16 11:27 | -5.19707 | 40.33182 | 30963 ft | 514 kts | 34° |
| 2026-04-16 11:27 | -5.16738 | 40.35176 | 31211 ft | 513 kts | 34° |
| 2026-04-16 11:28 | -5.13770 | 40.37168 | 31459 ft | 513 kts | 34° |
| 2026-04-16 11:28 | -5.10849 | 40.39159 | 31698 ft | 513 kts | 37° |
| 2026-04-16 11:28 | -5.07996 | 40.41301 | 31929 ft | 512 kts | 39° |
| 2026-04-16 11:28 | -5.05209 | 40.43525 | 32164 ft | 512 kts | 40° |
| 2026-04-16 11:29 | -5.02440 | 40.45776 | 32409 ft | 511 kts | 40° |
| 2026-04-16 11:29 | -4.99671 | 40.48013 | 32635 ft | 511 kts | 40° |
| 2026-04-16 11:29 | -4.96880 | 40.50242 | 32793 ft | 513 kts | 39° |
| 2026-04-16 11:30 | -4.91251 | 40.54675 | 32878 ft | 516 kts | 39° |
| 2026-04-16 11:30 | -4.85565 | 40.59138 | 32874 ft | 520 kts | 39° |
| 2026-04-16 11:31 | -4.79747 | 40.63421 | 32873 ft | 523 kts | 32° |
| 2026-04-16 11:31 | -4.73509 | 40.67208 | 32874 ft | 525 kts | 31° |
| 2026-04-16 11:32 | -4.67233 | 40.70965 | 32865 ft | 525 kts | 32° |
| 2026-04-16 11:32 | -4.60991 | 40.74748 | 32852 ft | 524 kts | 32° |
| 2026-04-16 11:33 | -4.54776 | 40.78543 | 32868 ft | 522 kts | 32° |
| 2026-04-16 11:33 | -4.48576 | 40.82332 | 32867 ft | 520 kts | 32° |
| 2026-04-16 11:34 | -4.42408 | 40.86097 | 32863 ft | 518 kts | 32° |
| 2026-04-16 11:34 | -4.36248 | 40.89855 | 32866 ft | 518 kts | 32° |
| 2026-04-16 11:35 | -4.30100 | 40.93604 | 32871 ft | 517 kts | 32° |
| 2026-04-16 11:35 | -4.23950 | 40.97355 | 32867 ft | 518 kts | 32° |
| 2026-04-16 11:36 | -4.17835 | 41.01083 | 32872 ft | 518 kts | 32° |
| 2026-04-16 11:36 | -4.11664 | 41.04846 | 32872 ft | 519 kts | 32° |
| 2026-04-16 11:37 | -4.05478 | 41.08617 | 32854 ft | 520 kts | 32° |
| 2026-04-16 11:37 | -4.00343 | 41.11747 | 32874 ft | 520 kts | 32° |
| 2026-04-16 11:38 | -3.94414 | 41.15891 | 32856 ft | 520 kts | 37° |
| 2026-04-16 11:38 | -3.88618 | 41.20234 | 32871 ft | 521 kts | 38° |
| 2026-04-16 11:39 | -3.82809 | 41.24581 | 32872 ft | 521 kts | 37° |
| 2026-04-16 11:39 | -3.76978 | 41.28908 | 32873 ft | 521 kts | 37° |
| 2026-04-16 11:40 | -3.71139 | 41.33225 | 32858 ft | 522 kts | 37° |
| 2026-04-16 11:40 | -3.65305 | 41.37537 | 32853 ft | 522 kts | 37° |
| 2026-04-16 11:41 | -3.59463 | 41.41856 | 32870 ft | 521 kts | 37° |
| 2026-04-16 11:41 | -3.53624 | 41.46174 | 32868 ft | 521 kts | 37° |
| 2026-04-16 11:42 | -3.47826 | 41.50461 | 32856 ft | 521 kts | 37° |
| 2026-04-16 11:42 | -3.41995 | 41.54771 | 32849 ft | 521 kts | 37° |
| 2026-04-16 11:43 | -3.36163 | 41.59082 | 32850 ft | 521 kts | 37° |
| 2026-04-16 11:43 | -3.30330 | 41.63392 | 32868 ft | 521 kts | 37° |
| 2026-04-16 11:44 | -3.24504 | 41.67697 | 32866 ft | 521 kts | 37° |
| 2026-04-16 11:44 | -3.18667 | 41.72009 | 32847 ft | 521 kts | 37° |
| 2026-04-16 11:45 | -3.12832 | 41.76319 | 32844 ft | 521 kts | 37° |
| 2026-04-16 11:45 | -3.07031 | 41.80604 | 32846 ft | 522 kts | 37° |
| 2026-04-16 11:46 | -3.01191 | 41.84917 | 32856 ft | 522 kts | 37° |
| 2026-04-16 11:46 | -2.95348 | 41.89231 | 32862 ft | 522 kts | 37° |
| 2026-04-16 11:47 | -2.89505 | 41.93544 | 32840 ft | 522 kts | 37° |
| 2026-04-16 11:47 | -2.83660 | 41.97859 | 32857 ft | 522 kts | 37° |
| 2026-04-16 11:48 | -2.77806 | 42.02180 | 32855 ft | 522 kts | 37° |
| 2026-04-16 11:48 | -2.71961 | 42.06493 | 32845 ft | 522 kts | 37° |
| 2026-04-16 11:49 | -2.66128 | 42.10798 | 32846 ft | 521 kts | 37° |
| 2026-04-16 11:49 | -2.60289 | 42.15106 | 32844 ft | 521 kts | 37° |
| 2026-04-16 11:50 | -2.54499 | 42.19378 | 32840 ft | 520 kts | 36° |
| 2026-04-16 11:50 | -2.48672 | 42.23676 | 32842 ft | 520 kts | 36° |
| 2026-04-16 11:51 | -2.42852 | 42.27969 | 32842 ft | 519 kts | 36° |
| 2026-04-16 11:51 | -2.37037 | 42.32258 | 32843 ft | 519 kts | 36° |
| 2026-04-16 11:52 | -2.31204 | 42.36560 | 32842 ft | 519 kts | 36° |
| 2026-04-16 11:52 | -2.25428 | 42.40820 | 32837 ft | 520 kts | 36° |
| 2026-04-16 11:53 | -2.19585 | 42.45094 | 32838 ft | 520 kts | 35° |
| 2026-04-16 11:53 | -2.13625 | 42.49206 | 32836 ft | 520 kts | 34° |
| 2026-04-16 11:54 | -2.07652 | 42.53301 | 32837 ft | 520 kts | 34° |
| 2026-04-16 11:54 | -2.01703 | 42.57426 | 32836 ft | 520 kts | 34° |
| 2026-04-16 11:55 | -1.95736 | 42.61528 | 32835 ft | 520 kts | 34° |
| 2026-04-16 11:55 | -1.89778 | 42.65549 | 32835 ft | 520 kts | 34° |
| 2026-04-16 11:56 | -1.83776 | 42.69597 | 32833 ft | 520 kts | 34° |
| 2026-04-16 11:56 | -1.77787 | 42.73648 | 32829 ft | 519 kts | 34° |
| 2026-04-16 11:57 | -1.71802 | 42.77703 | 32832 ft | 519 kts | 34° |
| 2026-04-16 11:57 | -1.65813 | 42.81762 | 32833 ft | 519 kts | 34° |
| 2026-04-16 11:58 | -1.59864 | 42.85792 | 32833 ft | 520 kts | 34° |
| 2026-04-16 11:58 | -1.53841 | 42.89871 | 32829 ft | 524 kts | 34° |
| 2026-04-16 11:59 | -1.47780 | 42.93976 | 32827 ft | 527 kts | 34° |
| 2026-04-16 11:59 | -1.41698 | 42.98094 | 32844 ft | 529 kts | 34° |
| 2026-04-16 12:00 | -1.35584 | 43.02235 | 32824 ft | 531 kts | 34° |
| 2026-04-16 12:00 | -1.29497 | 43.06356 | 32830 ft | 533 kts | 34° |
| 2026-04-16 12:01 | -1.23352 | 43.10517 | 32826 ft | 534 kts | 34° |
| 2026-04-16 12:01 | -1.17190 | 43.14689 | 32826 ft | 535 kts | 34° |
| 2026-04-16 12:02 | -1.07948 | 43.20946 | 32828 ft | 535 kts | 33° |
| 2026-04-16 12:02 | -1.01824 | 43.25091 | 32822 ft | 535 kts | 33° |
| 2026-04-16 12:03 | -0.95657 | 43.29266 | 32821 ft | 534 kts | 33° |
| 2026-04-16 12:03 | -0.89498 | 43.33435 | 32823 ft | 534 kts | 33° |
| 2026-04-16 12:04 | -0.83343 | 43.37601 | 32824 ft | 534 kts | 33° |
| 2026-04-16 12:04 | -0.77202 | 43.41758 | 32817 ft | 533 kts | 33° |
| 2026-04-16 12:05 | -0.71062 | 43.45913 | 32821 ft | 533 kts | 33° |
| 2026-04-16 12:05 | -0.64914 | 43.50074 | 32837 ft | 533 kts | 33° |
| 2026-04-16 12:06 | -0.58767 | 43.54234 | 32818 ft | 533 kts | 33° |
| 2026-04-16 12:06 | -0.52667 | 43.58363 | 32825 ft | 533 kts | 33° |
| 2026-04-16 12:07 | -0.46528 | 43.62517 | 32820 ft | 533 kts | 33° |
| 2026-04-16 12:07 | -0.40385 | 43.66674 | 32823 ft | 532 kts | 33° |
| 2026-04-16 12:08 | -0.34255 | 43.70822 | 32821 ft | 532 kts | 33° |
| 2026-04-16 12:08 | -0.28114 | 43.74978 | 32823 ft | 532 kts | 33° |
| 2026-04-16 12:09 | -0.21979 | 43.79129 | 32818 ft | 532 kts | 33° |
| 2026-04-16 12:09 | -0.15888 | 43.83251 | 32816 ft | 532 kts | 33° |
| 2026-04-16 12:10 | -0.09752 | 43.87404 | 32833 ft | 532 kts | 33° |
| 2026-04-16 12:10 | -0.03615 | 43.91557 | 32820 ft | 532 kts | 33° |
| 2026-04-16 12:11 | 0.02513 | 43.95703 | 32820 ft | 532 kts | 33° |
| 2026-04-16 12:11 | 0.08644 | 43.99852 | 32814 ft | 532 kts | 33° |
| 2026-04-16 12:12 | 0.14781 | 44.04006 | 32835 ft | 532 kts | 33° |
| 2026-04-16 12:12 | 0.20908 | 44.08152 | 32815 ft | 532 kts | 33° |
| 2026-04-16 12:13 | 0.27030 | 44.12296 | 32811 ft | 531 kts | 33° |
| 2026-04-16 12:13 | 0.33111 | 44.16411 | 32817 ft | 531 kts | 33° |
| 2026-04-16 12:14 | 0.39236 | 44.20540 | 32817 ft | 531 kts | 33° |
| 2026-04-16 12:14 | 0.45373 | 44.24667 | 32815 ft | 531 kts | 33° |
| 2026-04-16 12:15 | 0.51499 | 44.28790 | 32835 ft | 531 kts | 33° |
| 2026-04-16 12:15 | 0.57621 | 44.32914 | 32820 ft | 531 kts | 33° |
| 2026-04-16 12:16 | 0.63741 | 44.37037 | 32815 ft | 531 kts | 33° |
| 2026-04-16 12:16 | 0.69868 | 44.41165 | 32814 ft | 530 kts | 33° |
| 2026-04-16 12:17 | 0.75992 | 44.45290 | 32819 ft | 530 kts | 33° |
| 2026-04-16 12:17 | 0.82073 | 44.49387 | 32815 ft | 530 kts | 33° |
| 2026-04-16 12:18 | 0.88186 | 44.53506 | 32815 ft | 530 kts | 33° |
| 2026-04-16 12:18 | 0.94313 | 44.57634 | 32818 ft | 530 kts | 33° |
| 2026-04-16 12:19 | 1.00401 | 44.61736 | 32813 ft | 530 kts | 33° |
| 2026-04-16 12:19 | 1.06523 | 44.65861 | 32817 ft | 530 kts | 33° |
| 2026-04-16 12:20 | 1.12639 | 44.69982 | 32817 ft | 530 kts | 33° |
| 2026-04-16 12:20 | 1.18760 | 44.74107 | 32814 ft | 530 kts | 33° |
| 2026-04-16 12:21 | 1.24868 | 44.78223 | 32814 ft | 530 kts | 33° |
| 2026-04-16 12:21 | 1.30980 | 44.82342 | 32831 ft | 530 kts | 33° |
| 2026-04-16 12:22 | 1.37087 | 44.86458 | 32813 ft | 529 kts | 33° |
| 2026-04-16 12:22 | 1.43202 | 44.90580 | 32817 ft | 529 kts | 33° |
| 2026-04-16 12:23 | 1.49265 | 44.94667 | 32816 ft | 529 kts | 33° |
| 2026-04-16 12:23 | 1.55370 | 44.98782 | 32831 ft | 529 kts | 33° |
| 2026-04-16 12:24 | 1.61467 | 45.02893 | 32815 ft | 529 kts | 33° |
| 2026-04-16 12:24 | 1.67569 | 45.07008 | 32810 ft | 529 kts | 33° |
| 2026-04-16 12:25 | 1.72678 | 45.10452 | 32827 ft | 529 kts | 33° |
| 2026-04-16 12:25 | 1.79761 | 45.15229 | 32823 ft | 528 kts | 33° |
| 2026-04-16 12:26 | 1.84832 | 45.18649 | 32818 ft | 528 kts | 33° |
| 2026-04-16 12:26 | 1.90944 | 45.22772 | 32799 ft | 529 kts | 33° |
| 2026-04-16 12:27 | 1.97039 | 45.26884 | 32794 ft | 529 kts | 33° |
| 2026-04-16 12:27 | 2.03182 | 45.30909 | 32795 ft | 528 kts | 30° |
| 2026-04-16 12:28 | 2.09456 | 45.34666 | 32813 ft | 528 kts | 30° |
| 2026-04-16 12:28 | 2.15798 | 45.38404 | 32816 ft | 528 kts | 30° |
| 2026-04-16 12:29 | 2.22107 | 45.42151 | 32800 ft | 528 kts | 30° |
| 2026-04-16 12:29 | 2.28399 | 45.45912 | 32807 ft | 528 kts | 30° |
| 2026-04-16 12:30 | 2.34707 | 45.49691 | 32819 ft | 528 kts | 30° |
| 2026-04-16 12:30 | 2.41023 | 45.53473 | 32822 ft | 527 kts | 30° |
| 2026-04-16 12:31 | 2.47310 | 45.57237 | 32820 ft | 527 kts | 30° |
| 2026-04-16 12:31 | 2.53598 | 45.61001 | 32803 ft | 527 kts | 30° |
| 2026-04-16 12:32 | 2.59860 | 45.64750 | 32802 ft | 527 kts | 30° |
| 2026-04-16 12:32 | 2.66156 | 45.68520 | 32820 ft | 527 kts | 30° |
| 2026-04-16 12:33 | 2.72487 | 45.72311 | 32818 ft | 527 kts | 30° |
| 2026-04-16 12:33 | 2.78757 | 45.76066 | 32801 ft | 527 kts | 30° |
| 2026-04-16 12:34 | 2.85018 | 45.79817 | 32803 ft | 526 kts | 30° |
| 2026-04-16 12:34 | 2.91295 | 45.83577 | 32818 ft | 526 kts | 30° |
| 2026-04-16 12:35 | 2.97575 | 45.87340 | 32819 ft | 526 kts | 30° |
| 2026-04-16 12:35 | 3.03851 | 45.91100 | 32804 ft | 525 kts | 30° |
| 2026-04-16 12:36 | 3.10127 | 45.94862 | 32820 ft | 525 kts | 30° |
| 2026-04-16 12:36 | 3.16389 | 45.98615 | 32820 ft | 525 kts | 30° |
| 2026-04-16 12:37 | 3.22655 | 46.02371 | 32821 ft | 524 kts | 30° |
| 2026-04-16 12:37 | 3.28915 | 46.06124 | 32800 ft | 524 kts | 30° |
| 2026-04-16 12:38 | 3.35163 | 46.09872 | 32819 ft | 524 kts | 30° |
| 2026-04-16 12:38 | 3.41381 | 46.13601 | 32805 ft | 524 kts | 30° |
| 2026-04-16 12:39 | 3.47633 | 46.17350 | 32820 ft | 523 kts | 30° |
| 2026-04-16 12:39 | 3.53876 | 46.21096 | 32824 ft | 523 kts | 30° |
| 2026-04-16 12:40 | 3.60106 | 46.24834 | 32818 ft | 522 kts | 30° |
| 2026-04-16 12:40 | 3.66338 | 46.28574 | 32819 ft | 522 kts | 30° |
| 2026-04-16 12:41 | 3.72571 | 46.32315 | 32820 ft | 522 kts | 30° |
| 2026-04-16 12:41 | 3.78802 | 46.36055 | 32817 ft | 521 kts | 30° |
| 2026-04-16 12:42 | 3.85023 | 46.39788 | 32811 ft | 521 kts | 30° |
| 2026-04-16 12:42 | 3.91242 | 46.43526 | 32808 ft | 521 kts | 30° |
| 2026-04-16 12:43 | 3.97457 | 46.47260 | 32815 ft | 521 kts | 30° |
| 2026-04-16 12:43 | 4.03635 | 46.50970 | 32809 ft | 521 kts | 30° |
| 2026-04-16 12:44 | 4.09858 | 46.54709 | 32809 ft | 521 kts | 30° |
| 2026-04-16 12:44 | 4.16077 | 46.58446 | 32810 ft | 521 kts | 30° |
| 2026-04-16 12:45 | 4.22295 | 46.62184 | 32808 ft | 521 kts | 30° |
| 2026-04-16 12:45 | 4.28520 | 46.65927 | 32792 ft | 522 kts | 30° |
| 2026-04-16 12:46 | 4.34742 | 46.69668 | 32804 ft | 522 kts | 30° |
| 2026-04-16 12:46 | 4.40967 | 46.73411 | 32804 ft | 522 kts | 29° |
| 2026-04-16 12:47 | 4.47204 | 46.77163 | 32803 ft | 522 kts | 30° |
| 2026-04-16 12:47 | 4.53434 | 46.80911 | 32804 ft | 522 kts | 29° |
| 2026-04-16 12:48 | 4.59664 | 46.84661 | 32793 ft | 522 kts | 29° |
| 2026-04-16 12:48 | 4.65856 | 46.88388 | 32797 ft | 522 kts | 29° |
| 2026-04-16 12:49 | 4.72088 | 46.92139 | 32798 ft | 522 kts | 29° |
| 2026-04-16 12:49 | 4.78317 | 46.95890 | 32793 ft | 522 kts | 29° |
| 2026-04-16 12:50 | 4.84549 | 46.99644 | 32791 ft | 522 kts | 29° |
| 2026-04-16 12:50 | 4.90782 | 47.03398 | 32793 ft | 523 kts | 29° |
| 2026-04-16 12:51 | 4.97021 | 47.07158 | 32791 ft | 523 kts | 29° |
| 2026-04-16 12:51 | 5.03220 | 47.10894 | 32792 ft | 523 kts | 29° |
| 2026-04-16 12:52 | 5.09464 | 47.14658 | 32790 ft | 523 kts | 29° |
| 2026-04-16 12:52 | 5.15711 | 47.18425 | 32793 ft | 523 kts | 29° |
| 2026-04-16 12:53 | 5.21933 | 47.22177 | 32771 ft | 523 kts | 29° |
| 2026-04-16 12:53 | 5.28188 | 47.25951 | 32785 ft | 523 kts | 29° |
| 2026-04-16 12:54 | 5.34420 | 47.29711 | 32787 ft | 523 kts | 29° |
| 2026-04-16 12:54 | 5.40656 | 47.33475 | 32786 ft | 522 kts | 29° |
| 2026-04-16 12:55 | 5.46857 | 47.37219 | 32769 ft | 522 kts | 29° |
| 2026-04-16 12:55 | 5.53070 | 47.40970 | 32788 ft | 522 kts | 29° |
| 2026-04-16 12:56 | 5.59298 | 47.44734 | 32782 ft | 522 kts | 29° |
| 2026-04-16 12:56 | 5.65526 | 47.48496 | 32787 ft | 522 kts | 29° |
| 2026-04-16 12:57 | 5.71722 | 47.52271 | 32785 ft | 521 kts | 29° |
| 2026-04-16 12:57 | 5.77905 | 47.56065 | 32771 ft | 521 kts | 30° |
| 2026-04-16 12:58 | 5.84052 | 47.59839 | 32784 ft | 520 kts | 30° |
| 2026-04-16 12:58 | 5.90220 | 47.63621 | 32786 ft | 518 kts | 30° |
| 2026-04-16 12:59 | 5.96393 | 47.67406 | 32788 ft | 517 kts | 30° |
| 2026-04-16 13:00 | 6.05578 | 47.73038 | 32792 ft | 516 kts | 30° |
| 2026-04-16 13:00 | 6.11708 | 47.76797 | 32786 ft | 515 kts | 30° |
| 2026-04-16 13:01 | 6.17809 | 47.80540 | 32793 ft | 515 kts | 30° |
| 2026-04-16 13:01 | 6.23931 | 47.84296 | 32787 ft | 514 kts | 30° |
| 2026-04-16 13:02 | 6.30019 | 47.88033 | 32791 ft | 514 kts | 30° |
| 2026-04-16 13:02 | 6.36128 | 47.91788 | 32792 ft | 514 kts | 30° |
| 2026-04-16 13:03 | 6.42241 | 47.95546 | 32784 ft | 514 kts | 30° |
| 2026-04-16 13:03 | 6.48346 | 47.99296 | 32788 ft | 514 kts | 30° |
| 2026-04-16 13:04 | 6.54427 | 48.03034 | 32794 ft | 514 kts | 30° |
| 2026-04-16 13:04 | 6.60558 | 48.06800 | 32793 ft | 515 kts | 30° |
| 2026-04-16 13:05 | 6.66640 | 48.10540 | 32787 ft | 515 kts | 30° |
| 2026-04-16 13:05 | 6.72776 | 48.14317 | 32784 ft | 515 kts | 30° |
| 2026-04-16 13:06 | 6.78867 | 48.18066 | 32788 ft | 516 kts | 30° |
| 2026-04-16 13:06 | 6.84991 | 48.21833 | 32771 ft | 516 kts | 30° |
| 2026-04-16 13:07 | 6.91121 | 48.25608 | 32790 ft | 517 kts | 30° |
| 2026-04-16 13:07 | 6.97265 | 48.29395 | 32776 ft | 517 kts | 30° |
| 2026-04-16 13:08 | 7.03373 | 48.33157 | 32779 ft | 518 kts | 30° |
| 2026-04-16 13:08 | 7.09523 | 48.36949 | 32796 ft | 518 kts | 30° |
| 2026-04-16 13:09 | 7.15670 | 48.40738 | 32776 ft | 519 kts | 30° |
| 2026-04-16 13:09 | 7.21830 | 48.44540 | 32793 ft | 519 kts | 30° |
| 2026-04-16 13:10 | 7.27991 | 48.48342 | 32795 ft | 520 kts | 30° |
| 2026-04-16 13:10 | 7.34169 | 48.52156 | 32783 ft | 520 kts | 30° |
| 2026-04-16 13:11 | 7.40365 | 48.55934 | 32806 ft | 520 kts | 29° |
| 2026-04-16 13:11 | 7.46581 | 48.59682 | 32792 ft | 521 kts | 29° |
| 2026-04-16 13:12 | 7.52797 | 48.63435 | 32794 ft | 521 kts | 29° |
| 2026-04-16 13:12 | 7.58981 | 48.67179 | 32817 ft | 521 kts | 29° |
| 2026-04-16 13:13 | 7.65191 | 48.70945 | 32824 ft | 521 kts | 29° |
| 2026-04-16 13:13 | 7.71403 | 48.74716 | 32809 ft | 521 kts | 29° |
| 2026-04-16 13:14 | 7.76150 | 48.77596 | 32814 ft | 521 kts | 29° |
| 2026-04-16 13:14 | 7.82361 | 48.81366 | 32815 ft | 521 kts | 29° |
| 2026-04-16 13:15 | 7.87526 | 48.84503 | 32812 ft | 521 kts | 29° |
| 2026-04-16 13:15 | 7.93745 | 48.88277 | 32819 ft | 521 kts | 29° |
| 2026-04-16 13:16 | 7.99956 | 48.92051 | 32838 ft | 521 kts | 29° |
| 2026-04-16 13:16 | 8.06173 | 48.95832 | 32834 ft | 521 kts | 29° |
| 2026-04-16 13:17 | 8.12389 | 48.99611 | 32830 ft | 521 kts | 29° |
| 2026-04-16 13:17 | 8.18599 | 49.03391 | 32814 ft | 521 kts | 29° |
| 2026-04-16 13:18 | 8.24768 | 49.07147 | 32810 ft | 521 kts | 29° |
| 2026-04-16 13:18 | 8.30983 | 49.10929 | 32810 ft | 521 kts | 29° |
| 2026-04-16 13:19 | 8.37193 | 49.14710 | 32804 ft | 521 kts | 29° |
| 2026-04-16 13:19 | 8.43407 | 49.18495 | 32809 ft | 521 kts | 29° |
| 2026-04-16 13:20 | 8.49616 | 49.22279 | 32808 ft | 521 kts | 29° |
| 2026-04-16 13:20 | 8.55822 | 49.26063 | 32830 ft | 521 kts | 29° |
| 2026-04-16 13:21 | 8.62027 | 49.29847 | 32815 ft | 521 kts | 29° |
| 2026-04-16 13:21 | 8.68204 | 49.33616 | 32817 ft | 521 kts | 29° |
| 2026-04-16 13:22 | 8.74398 | 49.37398 | 32842 ft | 520 kts | 29° |
| 2026-04-16 13:22 | 8.80625 | 49.41202 | 32829 ft | 520 kts | 29° |
| 2026-04-16 13:23 | 8.86815 | 49.44986 | 32835 ft | 520 kts | 29° |
| 2026-04-16 13:23 | 8.92997 | 49.48767 | 32837 ft | 520 kts | 29° |
| 2026-04-16 13:24 | 8.99190 | 49.52556 | 32837 ft | 520 kts | 29° |
| 2026-04-16 13:24 | 9.05384 | 49.56347 | 32840 ft | 520 kts | 29° |
| 2026-04-16 13:25 | 9.11546 | 49.60120 | 32840 ft | 520 kts | 29° |
| 2026-04-16 13:25 | 9.17745 | 49.63918 | 32837 ft | 520 kts | 29° |
| 2026-04-16 13:26 | 9.23947 | 49.67718 | 32840 ft | 519 kts | 29° |
| 2026-04-16 13:26 | 9.30107 | 49.71494 | 32840 ft | 519 kts | 29° |
| 2026-04-16 13:27 | 9.36294 | 49.75288 | 32841 ft | 519 kts | 28° |
| 2026-04-16 13:27 | 9.42477 | 49.79083 | 32846 ft | 519 kts | 29° |
| 2026-04-16 13:28 | 9.48607 | 49.82848 | 32847 ft | 518 kts | 29° |
| 2026-04-16 13:28 | 9.54795 | 49.86649 | 32849 ft | 518 kts | 29° |
| 2026-04-16 13:29 | 9.60936 | 49.90423 | 32848 ft | 518 kts | 29° |
| 2026-04-16 13:29 | 9.67131 | 49.94232 | 32857 ft | 518 kts | 29° |
| 2026-04-16 13:30 | 9.73266 | 49.98005 | 32855 ft | 518 kts | 28° |
| 2026-04-16 13:30 | 9.79442 | 50.01806 | 32854 ft | 518 kts | 28° |
| 2026-04-16 13:31 | 9.85591 | 50.05592 | 32855 ft | 517 kts | 28° |
| 2026-04-16 13:31 | 9.91727 | 50.09371 | 32854 ft | 517 kts | 28° |
| 2026-04-16 13:32 | 9.97852 | 50.13145 | 32856 ft | 516 kts | 28° |
| 2026-04-16 13:32 | 10.03991 | 50.16929 | 32855 ft | 516 kts | 28° |
| 2026-04-16 13:33 | 10.10131 | 50.20716 | 32852 ft | 516 kts | 28° |
| 2026-04-16 13:33 | 10.16272 | 50.24506 | 32852 ft | 516 kts | 28° |
| 2026-04-16 13:34 | 10.22402 | 50.28290 | 32852 ft | 515 kts | 28° |
| 2026-04-16 13:34 | 10.28518 | 50.32067 | 32856 ft | 515 kts | 28° |
| 2026-04-16 13:35 | 10.34627 | 50.35841 | 32856 ft | 514 kts | 28° |
| 2026-04-16 13:35 | 10.40750 | 50.39626 | 32862 ft | 514 kts | 28° |
| 2026-04-16 13:36 | 10.46819 | 50.43379 | 32856 ft | 514 kts | 28° |
| 2026-04-16 13:36 | 10.52911 | 50.47149 | 32865 ft | 513 kts | 27° |
| 2026-04-16 13:37 | 10.59014 | 50.50926 | 32859 ft | 513 kts | 27° |
| 2026-04-16 13:37 | 10.65120 | 50.54708 | 32866 ft | 513 kts | 27° |
| 2026-04-16 13:38 | 10.71205 | 50.58478 | 32859 ft | 513 kts | 27° |
| 2026-04-16 13:38 | 10.77297 | 50.62254 | 32865 ft | 513 kts | 27° |
| 2026-04-16 13:39 | 10.83382 | 50.66028 | 32872 ft | 513 kts | 27° |
| 2026-04-16 13:39 | 10.89465 | 50.69803 | 32873 ft | 513 kts | 27° |
| 2026-04-16 13:40 | 10.95566 | 50.73590 | 32872 ft | 513 kts | 27° |
| 2026-04-16 13:40 | 11.01645 | 50.77366 | 32878 ft | 513 kts | 27° |
| 2026-04-16 13:41 | 11.07752 | 50.81161 | 32877 ft | 513 kts | 27° |
| 2026-04-16 13:41 | 11.13839 | 50.84945 | 32876 ft | 513 kts | 27° |
| 2026-04-16 13:42 | 11.19894 | 50.88712 | 32882 ft | 513 kts | 27° |
| 2026-04-16 13:42 | 11.25992 | 50.92507 | 32886 ft | 512 kts | 27° |
| 2026-04-16 13:43 | 11.32052 | 50.96282 | 32889 ft | 512 kts | 27° |
| 2026-04-16 13:43 | 11.38156 | 51.00085 | 32887 ft | 512 kts | 27° |
| 2026-04-16 13:44 | 11.44222 | 51.03861 | 32877 ft | 512 kts | 27° |
| 2026-04-16 13:44 | 11.50264 | 51.07616 | 32880 ft | 512 kts | 27° |
| 2026-04-16 13:45 | 11.56335 | 51.11396 | 32884 ft | 512 kts | 27° |
| 2026-04-16 13:45 | 11.62437 | 51.15197 | 32884 ft | 512 kts | 27° |
| 2026-04-16 13:46 | 11.68487 | 51.18968 | 32881 ft | 512 kts | 27° |
| 2026-04-16 13:46 | 11.74595 | 51.22778 | 32876 ft | 512 kts | 27° |
| 2026-04-16 13:47 | 11.80653 | 51.26558 | 32868 ft | 511 kts | 27° |
| 2026-04-16 13:47 | 11.86703 | 51.30334 | 32866 ft | 511 kts | 27° |
| 2026-04-16 13:48 | 11.92781 | 51.34131 | 32870 ft | 510 kts | 27° |
| 2026-04-16 13:48 | 11.98813 | 51.37902 | 32873 ft | 510 kts | 27° |
| 2026-04-16 13:49 | 12.04883 | 51.41696 | 32872 ft | 509 kts | 27° |
| 2026-04-16 13:49 | 12.10896 | 51.45452 | 32871 ft | 509 kts | 27° |
| 2026-04-16 13:50 | 12.16959 | 51.49241 | 32868 ft | 509 kts | 27° |
| 2026-04-16 13:50 | 12.22989 | 51.53012 | 32872 ft | 509 kts | 27° |
| 2026-04-16 13:51 | 12.29007 | 51.56780 | 32872 ft | 509 kts | 27° |
| 2026-04-16 13:51 | 12.35069 | 51.60577 | 32870 ft | 509 kts | 27° |
| 2026-04-16 13:52 | 12.41090 | 51.64350 | 32870 ft | 509 kts | 26° |
| 2026-04-16 13:52 | 12.47125 | 51.68134 | 32870 ft | 508 kts | 26° |
| 2026-04-16 13:53 | 12.53139 | 51.71907 | 32870 ft | 508 kts | 26° |
| 2026-04-16 13:53 | 12.59163 | 51.75688 | 32871 ft | 508 kts | 26° |
| 2026-04-16 13:54 | 12.65214 | 51.79488 | 32879 ft | 508 kts | 26° |
| 2026-04-16 13:54 | 12.71237 | 51.83274 | 32874 ft | 508 kts | 26° |
| 2026-04-16 13:55 | 12.77232 | 51.87043 | 32875 ft | 507 kts | 26° |
| 2026-04-16 13:55 | 12.83238 | 51.90821 | 32876 ft | 507 kts | 26° |
| 2026-04-16 13:56 | 12.89243 | 51.94601 | 32876 ft | 507 kts | 26° |
| 2026-04-16 13:56 | 12.95283 | 51.98406 | 32882 ft | 507 kts | 26° |
| 2026-04-16 13:57 | 13.01275 | 52.02182 | 32870 ft | 507 kts | 26° |
| 2026-04-16 13:57 | 13.07321 | 52.05994 | 32881 ft | 507 kts | 26° |
| 2026-04-16 13:58 | 13.16321 | 52.11674 | 32882 ft | 508 kts | 26° |
| 2026-04-16 13:58 | 13.22318 | 52.15462 | 32893 ft | 508 kts | 26° |
| 2026-04-16 13:59 | 13.28355 | 52.19277 | 32874 ft | 508 kts | 26° |
| 2026-04-16 13:59 | 13.34371 | 52.23081 | 32876 ft | 508 kts | 26° |
| 2026-04-16 14:00 | 13.40368 | 52.26876 | 32881 ft | 509 kts | 26° |
| 2026-04-16 14:00 | 13.46424 | 52.30716 | 32880 ft | 509 kts | 26° |
| 2026-04-16 14:01 | 13.52432 | 52.34533 | 32882 ft | 509 kts | 26° |
| 2026-04-16 14:01 | 13.58458 | 52.38364 | 32878 ft | 509 kts | 26° |
| 2026-04-16 14:02 | 13.64476 | 52.42192 | 32879 ft | 509 kts | 26° |
| 2026-04-16 14:02 | 13.70489 | 52.46019 | 32879 ft | 510 kts | 26° |
| 2026-04-16 14:03 | 13.76522 | 52.49860 | 32878 ft | 510 kts | 26° |
| 2026-04-16 14:03 | 13.82540 | 52.53695 | 32881 ft | 510 kts | 26° |
| 2026-04-16 14:04 | 13.87579 | 52.56908 | 32878 ft | 510 kts | 26° |
| 2026-04-16 14:04 | 13.93595 | 52.60745 | 32875 ft | 510 kts | 26° |
| 2026-04-16 14:05 | 13.99641 | 52.64604 | 32885 ft | 509 kts | 26° |
| 2026-04-16 14:05 | 14.05652 | 52.68443 | 32890 ft | 510 kts | 26° |
| 2026-04-16 14:06 | 14.11652 | 52.72278 | 32881 ft | 510 kts | 26° |
| 2026-04-16 14:06 | 14.17664 | 52.76123 | 32881 ft | 510 kts | 26° |
| 2026-04-16 14:07 | 14.23688 | 52.79978 | 32880 ft | 510 kts | 26° |
| 2026-04-16 14:07 | 14.29725 | 52.83843 | 32880 ft | 510 kts | 26° |
| 2026-04-16 14:08 | 14.35738 | 52.87695 | 32880 ft | 510 kts | 26° |
| 2026-04-16 14:08 | 14.41783 | 52.91571 | 32881 ft | 510 kts | 26° |
| 2026-04-16 14:09 | 14.47802 | 52.95432 | 32879 ft | 510 kts | 26° |
| 2026-04-16 14:09 | 14.53808 | 52.99289 | 32881 ft | 510 kts | 26° |
| 2026-04-16 14:10 | 14.59864 | 53.03180 | 32880 ft | 511 kts | 26° |
| 2026-04-16 14:10 | 14.65897 | 53.07059 | 32879 ft | 511 kts | 26° |
| 2026-04-16 14:11 | 14.71932 | 53.10913 | 32879 ft | 511 kts | 26° |
| 2026-04-16 14:11 | 14.77954 | 53.14743 | 32877 ft | 511 kts | 26° |
| 2026-04-16 14:12 | 14.84008 | 53.18599 | 32879 ft | 511 kts | 26° |
| 2026-04-16 14:12 | 14.90088 | 53.22479 | 32879 ft | 511 kts | 26° |
| 2026-04-16 14:13 | 14.96118 | 53.26331 | 32876 ft | 511 kts | 26° |
| 2026-04-16 14:13 | 15.02161 | 53.30194 | 32878 ft | 511 kts | 26° |
| 2026-04-16 14:14 | 15.08230 | 53.34076 | 32875 ft | 511 kts | 26° |
| 2026-04-16 14:14 | 15.14243 | 53.37925 | 32876 ft | 512 kts | 26° |
| 2026-04-16 14:15 | 15.20327 | 53.41821 | 32876 ft | 512 kts | 26° |
| 2026-04-16 14:15 | 15.26360 | 53.45688 | 32873 ft | 512 kts | 26° |
| 2026-04-16 14:16 | 15.32413 | 53.49571 | 32876 ft | 512 kts | 26° |
| 2026-04-16 14:16 | 15.38507 | 53.53483 | 32873 ft | 513 kts | 26° |
| 2026-04-16 14:17 | 15.44555 | 53.57372 | 32875 ft | 513 kts | 27° |
| 2026-04-16 14:17 | 15.50581 | 53.61362 | 32875 ft | 514 kts | 27° |
| 2026-04-16 14:18 | 15.56577 | 53.65380 | 32870 ft | 514 kts | 28° |
| 2026-04-16 14:18 | 15.62559 | 53.69378 | 32873 ft | 514 kts | 27° |
| 2026-04-16 14:19 | 15.68594 | 53.73402 | 32871 ft | 514 kts | 27° |
| 2026-04-16 14:19 | 15.74584 | 53.77397 | 32872 ft | 514 kts | 28° |
| 2026-04-16 14:20 | 15.80630 | 53.81433 | 32873 ft | 515 kts | 28° |
| 2026-04-16 14:20 | 15.86670 | 53.85470 | 32871 ft | 515 kts | 28° |
| 2026-04-16 14:21 | 15.92695 | 53.89472 | 32873 ft | 515 kts | 27° |
| 2026-04-16 14:21 | 15.98742 | 53.93450 | 32871 ft | 515 kts | 27° |
| 2026-04-16 14:22 | 16.04777 | 53.97424 | 32873 ft | 515 kts | 27° |
| 2026-04-16 14:22 | 16.10836 | 54.01425 | 32872 ft | 515 kts | 27° |
| 2026-04-16 14:23 | 16.16892 | 54.05429 | 32866 ft | 515 kts | 27° |
| 2026-04-16 14:23 | 16.22912 | 54.09413 | 32867 ft | 515 kts | 27° |
| 2026-04-16 14:24 | 16.28947 | 54.13409 | 32865 ft | 515 kts | 28° |
| 2026-04-16 14:24 | 16.35001 | 54.17421 | 32867 ft | 515 kts | 28° |
| 2026-04-16 14:25 | 16.41052 | 54.21434 | 32870 ft | 515 kts | 28° |
| 2026-04-16 14:25 | 16.47101 | 54.25448 | 32867 ft | 515 kts | 28° |
| 2026-04-16 14:26 | 16.53143 | 54.29461 | 32867 ft | 515 kts | 28° |
| 2026-04-16 14:26 | 16.59183 | 54.33476 | 32866 ft | 515 kts | 28° |
| 2026-04-16 14:27 | 16.65206 | 54.37482 | 32866 ft | 515 kts | 28° |
| 2026-04-16 14:27 | 16.71279 | 54.41524 | 32869 ft | 515 kts | 28° |
| 2026-04-16 14:28 | 16.77322 | 54.45551 | 32872 ft | 515 kts | 28° |
| 2026-04-16 14:28 | 16.83354 | 54.49573 | 32878 ft | 516 kts | 28° |
| 2026-04-16 14:29 | 16.89384 | 54.53596 | 32878 ft | 516 kts | 28° |
| 2026-04-16 14:29 | 16.95433 | 54.57631 | 32889 ft | 516 kts | 28° |
| 2026-04-16 14:30 | 17.01487 | 54.61673 | 32897 ft | 516 kts | 28° |
| 2026-04-16 14:30 | 17.07536 | 54.65715 | 32901 ft | 517 kts | 28° |
| 2026-04-16 14:31 | 17.13590 | 54.69765 | 32910 ft | 517 kts | 28° |
| 2026-04-16 14:31 | 17.19653 | 54.73825 | 32905 ft | 518 kts | 28° |
| 2026-04-16 14:32 | 17.25700 | 54.77876 | 32911 ft | 518 kts | 28° |
| 2026-04-16 14:32 | 17.31739 | 54.82030 | 32911 ft | 520 kts | 30° |
| 2026-04-16 14:33 | 17.37716 | 54.86322 | 32911 ft | 521 kts | 31° |
| 2026-04-16 14:33 | 17.43700 | 54.90631 | 32893 ft | 521 kts | 30° |
| 2026-04-16 14:34 | 17.49639 | 54.94884 | 32910 ft | 521 kts | 30° |
| 2026-04-16 14:34 | 17.55649 | 54.99173 | 32908 ft | 521 kts | 30° |
| 2026-04-16 14:35 | 17.61660 | 55.03465 | 32889 ft | 522 kts | 30° |
| 2026-04-16 14:35 | 17.67636 | 55.07739 | 32901 ft | 522 kts | 30° |
| 2026-04-16 14:36 | 17.73655 | 55.12047 | 32883 ft | 523 kts | 30° |
| 2026-04-16 14:36 | 17.79671 | 55.16357 | 32902 ft | 523 kts | 31° |
| 2026-04-16 14:37 | 17.85672 | 55.20661 | 32881 ft | 524 kts | 31° |
| 2026-04-16 14:37 | 17.91674 | 55.24968 | 32878 ft | 524 kts | 31° |
| 2026-04-16 14:38 | 17.97708 | 55.29302 | 32873 ft | 525 kts | 31° |
| 2026-04-16 14:38 | 18.03710 | 55.33616 | 32870 ft | 525 kts | 31° |
| 2026-04-16 14:39 | 18.09740 | 55.37954 | 32871 ft | 525 kts | 31° |
| 2026-04-16 14:39 | 18.15755 | 55.42285 | 32873 ft | 525 kts | 31° |
| 2026-04-16 14:40 | 18.21769 | 55.46619 | 32873 ft | 525 kts | 31° |
| 2026-04-16 14:40 | 18.27836 | 55.50995 | 32872 ft | 526 kts | 31° |
| 2026-04-16 14:41 | 18.33846 | 55.55334 | 32873 ft | 526 kts | 31° |
| 2026-04-16 14:41 | 18.39850 | 55.59672 | 32874 ft | 526 kts | 31° |
| 2026-04-16 14:42 | 18.45878 | 55.64032 | 32869 ft | 526 kts | 31° |
| 2026-04-16 14:42 | 18.51935 | 55.68415 | 32866 ft | 526 kts | 31° |
| 2026-04-16 14:43 | 18.57950 | 55.72773 | 32868 ft | 526 kts | 31° |
| 2026-04-16 14:43 | 18.63968 | 55.77137 | 32865 ft | 526 kts | 31° |
| 2026-04-16 14:44 | 18.70008 | 55.81520 | 32868 ft | 526 kts | 31° |
| 2026-04-16 14:44 | 18.76006 | 55.85876 | 32865 ft | 526 kts | 31° |
| 2026-04-16 14:45 | 18.82015 | 55.90245 | 32867 ft | 525 kts | 31° |
| 2026-04-16 14:45 | 18.88060 | 55.94645 | 32865 ft | 526 kts | 31° |
| 2026-04-16 14:46 | 18.94130 | 55.98905 | 32863 ft | 522 kts | 26° |
| 2026-04-16 14:46 | 19.00699 | 56.02070 | 32873 ft | 517 kts | 16° |
| 2026-04-16 14:47 | 19.07571 | 56.04101 | 32872 ft | 513 kts | 10° |
| 2026-04-16 14:47 | 19.14485 | 56.05877 | 32866 ft | 513 kts | 9° |
| 2026-04-16 14:48 | 19.21410 | 56.07686 | 32867 ft | 513 kts | 10° |
| 2026-04-16 14:48 | 19.28356 | 56.09543 | 32866 ft | 513 kts | 10° |
| 2026-04-16 14:49 | 19.35284 | 56.11409 | 32863 ft | 513 kts | 10° |
| 2026-04-16 14:49 | 19.42182 | 56.13267 | 32863 ft | 513 kts | 10° |
| 2026-04-16 14:50 | 19.49117 | 56.15134 | 32863 ft | 513 kts | 10° |
| 2026-04-16 14:50 | 19.56034 | 56.16997 | 32862 ft | 513 kts | 10° |
| 2026-04-16 14:51 | 19.62944 | 56.18860 | 32864 ft | 513 kts | 10° |
| 2026-04-16 14:51 | 19.68744 | 56.20425 | 32860 ft | 513 kts | 10° |
| 2026-04-16 14:53 | 19.97584 | 56.27896 | 32867 ft | 509 kts | 3° |
| 2026-04-16 14:54 | 20.03485 | 56.28217 | 32869 ft | 504 kts | 355° |
| 2026-04-16 14:54 | 20.10456 | 56.28163 | 32869 ft | 504 kts | 355° |
| 2026-04-16 14:55 | 20.17482 | 56.28129 | 32856 ft | 505 kts | 356° |
| 2026-04-16 14:55 | 20.24522 | 56.28139 | 32866 ft | 506 kts | 356° |
| 2026-04-16 14:56 | 20.31550 | 56.28161 | 32866 ft | 506 kts | 356° |
| 2026-04-16 14:56 | 20.38580 | 56.28181 | 32862 ft | 506 kts | 356° |
| 2026-04-16 14:57 | 20.45665 | 56.28198 | 32850 ft | 506 kts | 356° |
| 2026-04-16 14:57 | 20.52666 | 56.28215 | 32862 ft | 507 kts | 356° |
| 2026-04-16 14:58 | 20.63158 | 56.27235 | 32867 ft | 502 kts | 348° |
| 2026-04-16 14:59 | 20.70069 | 56.26165 | 32870 ft | 502 kts | 348° |
| 2026-04-16 14:59 | 20.76970 | 56.25130 | 32858 ft | 502 kts | 348° |
| 2026-04-16 15:00 | 20.83911 | 56.24121 | 32859 ft | 503 kts | 348° |
| 2026-04-16 15:00 | 20.90843 | 56.23119 | 32857 ft | 503 kts | 348° |
| 2026-04-16 15:01 | 20.97788 | 56.22113 | 32859 ft | 503 kts | 348° |
| 2026-04-16 15:01 | 21.04724 | 56.21104 | 32857 ft | 503 kts | 348° |
| 2026-04-16 15:02 | 21.11671 | 56.20093 | 32858 ft | 504 kts | 348° |
| 2026-04-16 15:02 | 21.18567 | 56.19088 | 32858 ft | 504 kts | 348° |
| 2026-04-16 15:03 | 21.25513 | 56.18076 | 32854 ft | 504 kts | 348° |
| 2026-04-16 15:03 | 21.32471 | 56.17059 | 32862 ft | 504 kts | 348° |
| 2026-04-16 15:04 | 21.39419 | 56.16040 | 32856 ft | 504 kts | 348° |
| 2026-04-16 15:04 | 21.46372 | 56.15019 | 32859 ft | 504 kts | 348° |
| 2026-04-16 15:05 | 21.53309 | 56.13999 | 32863 ft | 504 kts | 348° |
| 2026-04-16 15:05 | 21.60264 | 56.12976 | 32867 ft | 504 kts | 348° |
| 2026-04-16 15:06 | 21.67203 | 56.11954 | 32868 ft | 504 kts | 348° |
| 2026-04-16 15:06 | 21.74158 | 56.10929 | 32863 ft | 504 kts | 348° |
| 2026-04-16 15:07 | 21.81099 | 56.09905 | 32860 ft | 504 kts | 348° |
| 2026-04-16 15:07 | 21.88047 | 56.08879 | 32857 ft | 504 kts | 348° |
| 2026-04-16 15:08 | 21.94951 | 56.07858 | 32856 ft | 504 kts | 348° |
| 2026-04-16 15:08 | 22.01904 | 56.06830 | 32864 ft | 504 kts | 348° |
| 2026-04-16 15:09 | 22.08857 | 56.05801 | 32865 ft | 504 kts | 348° |
| 2026-04-16 15:09 | 22.15807 | 56.04772 | 32865 ft | 504 kts | 348° |
| 2026-04-16 15:10 | 22.22763 | 56.03742 | 32864 ft | 505 kts | 348° |
| 2026-04-16 15:10 | 22.29726 | 56.02709 | 32863 ft | 505 kts | 348° |
| 2026-04-16 15:11 | 22.36686 | 56.01675 | 32867 ft | 505 kts | 348° |
| 2026-04-16 15:11 | 22.43641 | 56.00646 | 32870 ft | 505 kts | 348° |
| 2026-04-16 15:12 | 22.50613 | 55.99618 | 32871 ft | 505 kts | 348° |
| 2026-04-16 15:12 | 22.57570 | 55.98591 | 32872 ft | 505 kts | 348° |
| 2026-04-16 15:13 | 22.64486 | 55.97568 | 32872 ft | 505 kts | 348° |
| 2026-04-16 15:13 | 22.71455 | 55.96535 | 32872 ft | 505 kts | 348° |
| 2026-04-16 15:14 | 22.78418 | 55.95503 | 32877 ft | 505 kts | 348° |
| 2026-04-16 15:14 | 22.85375 | 55.94467 | 32880 ft | 504 kts | 348° |
| 2026-04-16 15:15 | 22.92318 | 55.93428 | 32877 ft | 504 kts | 348° |
| 2026-04-16 15:15 | 22.99232 | 55.92393 | 32867 ft | 494 kts | 348° |
| 2026-04-16 15:16 | 23.05966 | 55.91384 | 32874 ft | 486 kts | 348° |
| 2026-04-16 15:16 | 23.12670 | 55.90373 | 32882 ft | 486 kts | 348° |
| 2026-04-16 15:17 | 23.19370 | 55.89361 | 32888 ft | 486 kts | 348° |
| 2026-04-16 15:17 | 23.26039 | 55.88354 | 32887 ft | 486 kts | 348° |
| 2026-04-16 15:18 | 23.32750 | 55.87340 | 32889 ft | 487 kts | 348° |
| 2026-04-16 15:18 | 23.39478 | 55.86322 | 32887 ft | 488 kts | 348° |
| 2026-04-16 15:19 | 23.46203 | 55.85304 | 32893 ft | 488 kts | 348° |
| 2026-04-16 15:19 | 23.52938 | 55.84284 | 32890 ft | 489 kts | 348° |
| 2026-04-16 15:20 | 23.59678 | 55.83260 | 32898 ft | 489 kts | 348° |
| 2026-04-16 15:20 | 23.66373 | 55.82244 | 32877 ft | 475 kts | 348° |
| 2026-04-16 15:20 | 23.69642 | 55.81879 | 32173 ft | 477 kts | 353° |
| 2026-04-16 15:21 | 23.72929 | 55.81871 | 31621 ft | 478 kts | 360° |
| 2026-04-16 15:21 | 23.76238 | 55.82196 | 31075 ft | 475 kts | 2° |
| 2026-04-16 15:21 | 23.79512 | 55.82569 | 30586 ft | 471 kts | 2° |
| 2026-04-16 15:21 | 23.82760 | 55.82943 | 30093 ft | 467 kts | 3° |
| 2026-04-16 15:22 | 23.85980 | 55.83304 | 29548 ft | 464 kts | 2° |
| 2026-04-16 15:22 | 23.89184 | 55.83653 | 29011 ft | 460 kts | 2° |
| 2026-04-16 15:22 | 23.92350 | 55.83990 | 28508 ft | 455 kts | 2° |
| 2026-04-16 15:22 | 23.95487 | 55.84320 | 28015 ft | 451 kts | 2° |
| 2026-04-16 15:23 | 23.98597 | 55.84644 | 27529 ft | 446 kts | 2° |
| 2026-04-16 15:23 | 24.01675 | 55.84965 | 27058 ft | 442 kts | 2° |
| 2026-04-16 15:23 | 24.04731 | 55.85284 | 26587 ft | 439 kts | 2° |
| 2026-04-16 15:23 | 24.07757 | 55.85600 | 26120 ft | 435 kts | 2° |
| 2026-04-16 15:24 | 24.10762 | 55.85915 | 25659 ft | 432 kts | 2° |
| 2026-04-16 15:24 | 24.13708 | 55.86223 | 25191 ft | 429 kts | 2° |
| 2026-04-16 15:24 | 24.16674 | 55.86534 | 24745 ft | 427 kts | 2° |
| 2026-04-16 15:24 | 24.19627 | 55.86844 | 24266 ft | 425 kts | 2° |
| 2026-04-16 15:25 | 24.22567 | 55.87153 | 23810 ft | 423 kts | 2° |
| 2026-04-16 15:25 | 24.25487 | 55.87459 | 23311 ft | 421 kts | 2° |
| 2026-04-16 15:25 | 24.28397 | 55.87766 | 22796 ft | 419 kts | 3° |
| 2026-04-16 15:25 | 24.31277 | 55.88140 | 22335 ft | 416 kts | 6° |
| 2026-04-16 15:26 | 24.34114 | 55.88672 | 21859 ft | 412 kts | 11° |
| 2026-04-16 15:26 | 24.36820 | 55.89706 | 21403 ft | 412 kts | 23° |
| 2026-04-16 15:26 | 24.39313 | 55.91256 | 20977 ft | 411 kts | 32° |
| 2026-04-16 15:26 | 24.41523 | 55.93235 | 20546 ft | 410 kts | 40° |
| 2026-04-16 15:27 | 24.43603 | 55.95353 | 20113 ft | 407 kts | 41° |
| 2026-04-16 15:27 | 24.45670 | 55.97475 | 19689 ft | 404 kts | 40° |
| 2026-04-16 15:27 | 24.47723 | 55.99570 | 19243 ft | 402 kts | 40° |
| 2026-04-16 15:27 | 24.49777 | 56.01646 | 18799 ft | 400 kts | 40° |
| 2026-04-16 15:28 | 24.51824 | 56.03702 | 18376 ft | 398 kts | 40° |
| 2026-04-16 15:28 | 24.53842 | 56.05722 | 17905 ft | 397 kts | 40° |
| 2026-04-16 15:28 | 24.55876 | 56.07756 | 17442 ft | 394 kts | 40° |
| 2026-04-16 15:28 | 24.57903 | 56.09769 | 16992 ft | 387 kts | 37° |
| 2026-04-16 15:29 | 24.60162 | 56.11236 | 16558 ft | 374 kts | 16° |
| 2026-04-16 15:29 | 24.62681 | 56.11789 | 16151 ft | 367 kts | 0° |
| 2026-04-16 15:29 | 24.65206 | 56.11612 | 15816 ft | 359 kts | 351° |
| 2026-04-16 15:29 | 24.67649 | 56.11243 | 15622 ft | 349 kts | 350° |
| 2026-04-16 15:30 | 24.70039 | 56.10863 | 15244 ft | 346 kts | 350° |
| 2026-04-16 15:30 | 24.72407 | 56.10489 | 14759 ft | 339 kts | 350° |
| 2026-04-16 15:30 | 24.74701 | 56.10139 | 14277 ft | 326 kts | 351° |
| 2026-04-16 15:30 | 24.76907 | 56.09810 | 13801 ft | 314 kts | 351° |
| 2026-04-16 15:31 | 24.79042 | 56.09494 | 13295 ft | 305 kts | 351° |
| 2026-04-16 15:31 | 24.81121 | 56.09192 | 12787 ft | 299 kts | 351° |
| 2026-04-16 15:31 | 24.83189 | 56.08891 | 12500 ft | 295 kts | 351° |
| 2026-04-16 15:31 | 24.85212 | 56.08598 | 12202 ft | 291 kts | 351° |
| 2026-04-16 15:32 | 24.87221 | 56.08307 | 11769 ft | 293 kts | 351° |
| 2026-04-16 15:32 | 24.89242 | 56.08014 | 11366 ft | 294 kts | 351° |
| 2026-04-16 15:32 | 24.91266 | 56.07721 | 11042 ft | 291 kts | 351° |
| 2026-04-16 15:32 | 24.93292 | 56.07424 | 10595 ft | 292 kts | 350° |
| 2026-04-16 15:33 | 24.95176 | 56.06788 | 10247 ft | 284 kts | 328° |
| 2026-04-16 15:33 | 24.96624 | 56.05325 | 9926 ft | 282 kts | 307° |
| 2026-04-16 15:33 | 24.97579 | 56.03476 | 9574 ft | 282 kts | 291° |
| 2026-04-16 15:33 | 24.97969 | 56.01375 | 9324 ft | 278 kts | 278° |
| 2026-04-16 15:34 | 24.98163 | 55.99219 | 8862 ft | 281 kts | 277° |
| 2026-04-16 15:34 | 24.98343 | 55.97096 | 8513 ft | 281 kts | 277° |
| 2026-04-16 15:34 | 24.98527 | 55.94964 | 8129 ft | 281 kts | 277° |
| 2026-04-16 15:34 | 24.98720 | 55.92830 | 7867 ft | 276 kts | 277° |
| 2026-04-16 15:35 | 24.98917 | 55.90728 | 7541 ft | 275 kts | 277° |
| 2026-04-16 15:35 | 24.99115 | 55.88636 | 7231 ft | 273 kts | 277° |
| 2026-04-16 15:35 | 24.99315 | 55.86557 | 6969 ft | 270 kts | 277° |
| 2026-04-16 15:35 | 24.99512 | 55.84512 | 6730 ft | 266 kts | 277° |
| 2026-04-16 15:36 | 24.99760 | 55.82506 | 6371 ft | 262 kts | 286° |
| 2026-04-16 15:36 | 25.00575 | 55.80719 | 5919 ft | 262 kts | 302° |
| 2026-04-16 15:36 | 25.01548 | 55.79043 | 5577 ft | 263 kts | 301° |
| 2026-04-16 15:36 | 25.02499 | 55.77358 | 5342 ft | 258 kts | 301° |
| 2026-04-16 15:37 | 25.03441 | 55.75676 | 5043 ft | 257 kts | 301° |
| 2026-04-16 15:37 | 25.04365 | 55.74026 | 4741 ft | 256 kts | 301° |
| 2026-04-16 15:37 | 25.05283 | 55.72384 | 4384 ft | 246 kts | 301° |
| 2026-04-16 15:37 | 25.06163 | 55.70811 | 4032 ft | 235 kts | 300° |
| 2026-04-16 15:38 | 25.07000 | 55.69311 | 3687 ft | 224 kts | 300° |
| 2026-04-16 15:38 | 25.07804 | 55.67872 | 3375 ft | 219 kts | 300° |
| 2026-04-16 15:38 | 25.08602 | 55.66442 | 3100 ft | 216 kts | 300° |
| 2026-04-16 15:38 | 25.09359 | 55.65085 | 3096 ft | 201 kts | 300° |
| 2026-04-16 15:39 | 25.10087 | 55.63781 | 3042 ft | 200 kts | 300° |
| 2026-04-16 15:39 | 25.10814 | 55.62475 | 3007 ft | 199 kts | 300° |
| 2026-04-16 15:39 | 25.11539 | 55.61174 | 3004 ft | 199 kts | 300° |
| 2026-04-16 15:39 | 25.12257 | 55.59883 | 2995 ft | 195 kts | 300° |
| 2026-04-16 15:40 | 25.12949 | 55.58641 | 2982 ft | 185 kts | 300° |
| 2026-04-16 15:40 | 25.13626 | 55.57457 | 3003 ft | 182 kts | 300° |
| 2026-04-16 15:40 | 25.14070 | 55.56675 | 2994 ft | 180 kts | 300° |
| 2026-04-16 15:40 | 25.14711 | 55.55534 | 2977 ft | 171 kts | 298° |
| 2026-04-16 15:41 | 25.15325 | 55.54431 | 2981 ft | 167 kts | 299° |
| 2026-04-16 15:41 | 25.15931 | 55.53336 | 2855 ft | 168 kts | 299° |
| 2026-04-16 15:41 | 25.16539 | 55.52248 | 2527 ft | 161 kts | 300° |
| 2026-04-16 15:41 | 25.17133 | 55.51218 | 2397 ft | 159 kts | 300° |
| 2026-04-16 15:42 | 25.17709 | 55.50180 | 2275 ft | 158 kts | 297° |
| 2026-04-16 15:42 | 25.18251 | 55.49123 | 2116 ft | 159 kts | 297° |
| 2026-04-16 15:42 | 25.18821 | 55.48071 | 1850 ft | 162 kts | 300° |
| 2026-04-16 15:42 | 25.19441 | 55.47008 | 1671 ft | 165 kts | 300° |
| 2026-04-16 15:43 | 25.20055 | 55.45939 | 1488 ft | 162 kts | 299° |
| 2026-04-16 15:43 | 25.20627 | 55.44863 | 1201 ft | 160 kts | 299° |
| 2026-04-16 15:43 | 25.21208 | 55.43836 | 987 ft | 157 kts | 299° |
| 2026-04-16 15:43 | 25.21772 | 55.42813 | 745 ft | 153 kts | 297° |
| 2026-04-16 15:44 | 25.22327 | 55.41777 | 571 ft | 160 kts | 298° |
| 2026-04-16 15:44 | 25.22904 | 55.40734 | 360 ft | 160 kts | 299° |
| 2026-04-16 15:44 | 25.23485 | 55.39679 | 98 ft | 161 kts | 299° |
| 2026-04-16 15:44 | 25.24027 | 55.38684 | 34 ft | 140 kts | 300° |
| 2026-04-16 15:45 | 25.24478 | 55.37887 | 35 ft | 104 kts | 301° |
| 2026-04-16 15:45 | 25.24745 | 55.37414 | 33 ft | 53 kts | 300° |
| 2026-04-16 15:45 | 25.24778 | 55.37263 | 34 ft | 12 kts | 275° |
| 2026-04-16 15:45 | 25.24786 | 55.37174 | 33 ft | 4 kts | 271° |
| 2026-04-16 15:46 | 25.24786 | 55.37153 | 32 ft | 1 kts | 271° |
| 2026-04-16 15:46 | 25.24787 | 55.37136 | 32 ft | 3 kts | 272° |
| 2026-04-16 15:46 | 25.24788 | 55.37102 | 31 ft | 5 kts | 273° |
| 2026-04-16 15:46 | 25.24790 | 55.37048 | 29 ft | 10 kts | 272° |
| 2026-04-16 15:47 | 25.24800 | 55.36969 | 28 ft | 10 kts | 289° |
| 2026-04-16 15:47 | 25.24830 | 55.36896 | 28 ft | 10 kts | 298° |
| 2026-04-16 15:47 | 25.24855 | 55.36821 | 28 ft | 10 kts | 285° |
| 2026-04-16 15:47 | 25.24871 | 55.36744 | 27 ft | 10 kts | 284° |
| 2026-04-16 15:48 | 25.24894 | 55.36668 | 26 ft | 10 kts | 291° |
| 2026-04-16 15:48 | 25.24929 | 55.36598 | 27 ft | 10 kts | 302° |
| 2026-04-16 15:48 | 25.24965 | 55.36529 | 27 ft | 10 kts | 292° |
| 2026-04-16 15:48 | 25.24982 | 55.36451 | 27 ft | 10 kts | 276° |
| 2026-04-16 15:49 | 25.24990 | 55.36371 | 27 ft | 10 kts | 277° |
| 2026-04-16 15:49 | 25.24999 | 55.36293 | 26 ft | 11 kts | 257° |
| 2026-04-16 15:49 | 25.24964 | 55.36245 | 31 ft | 6 kts | 216° |
| 2026-04-16 15:49 | 25.24940 | 55.36228 | 30 ft | 3 kts | 212° |
| 2026-04-16 15:50 | 25.24926 | 55.36219 | 30 ft | 2 kts | 212° |
| 2026-04-16 15:50 | 25.24919 | 55.36214 | 30 ft | 0 kts | 212° |